Tiempo atmosférico en la estación meteorológica de Serradilla, Cáceres (410 m.)



Fecha
DESCASC
Temp. máxima en grados centígrados (hora)
DESCASC
Temp. mínima en grados centígrados (hora)
DESCASC
Temp. media en grados centígrados
DESCASC
Racha de viento máxima en m/sg (hora)
DESCASC
Velocidad máxima media en intervalos de 10 minutos(hora)
DESCASC
Precipitaciones diarias en mm
DESCASC
Precipitaciones de 00:00 a 06:00 en mm
DESCASC
Precipitaciones de 06:00 a 12:00 en mm
DESCASC
Precipitaciones de 12:00 a 18:00 en mm
DESCASC
Precipitaciones de 18:00 a 24:00 en mm
DESCASC
25-04-2019 14.6 (18:10) 7.1 (08:10) 10.9 12.5 (18:00) 7.78 (18:00) 2.6 0 0.8 1.4 0.4
24-04-2019 15.6 (15:10) 5.7 (01:20) 10.7 14.72 (15:50) 8.89 (15:30) 21.6 1.4 13.8 2.8 3.6
23-04-2019 15.1 (00:00) 6.2 (23:59) 10.7 14.44 (14:50) 7.78 (14:50) 4.8 2.6 0.2 2 0
22-04-2019 21.5 (16:30) 8.1 (00:00) 14.8 10 (20:10) 5.83 (19:40) 0 0 0 0 0
21-04-2019 19.2 (15:00) 8.5 (00:00) 13.9 11.94 (01:50) 6.94 (02:00) 0 0 0 0 0
20-04-2019 22.9 (18:10) 9.3 (00:00) 16.1 8.89 (19:30) 6.11 (00:40) 0.2 0.2 0 0 0
19-04-2019 17.3 (16:30) 7.2 (00:00) 12.2 11.67 (17:00) 6.67 (15:20) 0.2 0 0 0 0.2
18-04-2019 16.7 (13:50) 9.3 (00:00) 13 8.61 (18:40) 5.28 (18:50) 0.8 0 0.4 0.2 0.2
17-04-2019 20.6 (16:50) 10.7 (00:00) 15.7 13.89 (17:50) 8.06 (17:50) 5.8 0 0 0 5.8
16-04-2019 22.4 (17:10) 6.1 (00:00) 14.2 8.33 (16:40) 5 (16:50) 0 0 0 0 0
15-04-2019 20.5 (15:00) 12.4 (00:00) 16.4 11.67 (16:30) 6.67 (16:30) 0.6 0 0 0.6 0
14-04-2019 23.5 (17:40) 11.5 (00:00) 17.5 7.5 (17:50) 3.33 (15:10) 0 0 0 0 0
13-04-2019 23 (17:00) 7.1 (00:00) 15 7.5 (19:40) 3.89 (18:40) 0 0 0 0 0
12-04-2019 20.4 (16:50) 8.5 (00:00) 14.4 6.39 (17:00) 3.61 (17:00) 0 0 0 0 0
11-04-2019 18.3 (16:50) 6.5 (00:00) 12.4 10.56 (00:20) 6.39 (02:00) 0 0 0 0 0
10-04-2019 17.4 (17:40) 6.2 (00:00) 11.8 11.67 (22:30) 6.39 (22:40) 0 0 0 0 0
09-04-2019 16.1 (17:10) 6.2 (00:00) 11.2 11.67 (12:10) 6.39 (16:40) 5 0.2 3.4 1.4 0
08-04-2019 16.7 (16:20) 7.6 (00:00) 12.2 10 (18:40) 5.83 (16:50) 5.6 5.4 0.2 0 0
07-04-2019 12.5 (14:10) 6.8 (00:00) 9.7 7.5 (14:20) 5.28 (15:30) 6.2 0.2 0 1.4 4.6
06-04-2019 11.2 (14:40) 4.1 (00:00) 7.6 14.44 (18:10) 7.78 (15:50) 3.8 0 1.6 2.2 0
05-04-2019 12.4 (16:50) 4.9 (00:00) 8.6 14.72 (18:20) 8.89 (18:30) 5 3.2 1.6 0.2 0
04-04-2019 16.6 (17:00) 4.3 (00:00) 10.5 16.11 (03:10) 8.89 (03:00) 0.6 0 0 0 0.6
03-04-2019 16.1 (15:40) 4.8 (00:00) 10.5 13.06 (17:10) 6.39 (17:10) 0 0 0 0 0
02-04-2019 21.3 (17:00) 6.8 (00:00) 14 7.22 (15:20) 3.89 (15:20) 0 0 0 0 0
01-04-2019 17.8 (18:00) 8.8 (00:00) 13.3 8.33 (00:10) 5.83 (00:10) 0.4 0 0 0 0.4
31-03-2019 19.6 (16:30) 10.5 (00:00) 15.1 11.39 (15:10) 7.78 (13:10) 0 0 0 0 0
30-03-2019 19.4 (15:40) 7.5 (00:00) 13.4 12.5 (09:50) 8.06 (09:20) 0 0 0 0 0
29-03-2019 19.3 (16:10) 6.8 (00:00) 13 12.78 (10:40) 8.61 (10:40) 0 0 0 0 0
28-03-2019 20.3 (16:20) 6.9 (00:00) 13.6 11.11 (07:30) 7.78 (07:30) 0 0 0 0 0
27-03-2019 19 (16:30) 8 (00:00) 13.5 15.28 (05:00) 11.11 (07:40) 0 0 0 0 0

Gráficas

Temp. máximas Temp. mínimas Temp. medias Precipitaciones Rachas de viento máximas Velocidades máximas media en intervalos de 10 minutos

Datos horarios

Fecha y hora oficial Temperatura (ºC) Velocidad del viento (km/h) Dirección del viento Racha (km/h) Dirección de racha Precipitación (mm) Presión (hPa) Tendencia (hPa) Humedad (%)
2019-04-25 23:00:00 9.6 12 Sudoeste 25 Oeste 0 -- -- 71
2019-04-25 22:00:00 9.8 10 Oeste 23 Sudoeste 0 -- -- 75
2019-04-25 21:00:00 11.7 9 Sudoeste 35 Oeste 0 -- -- 64
2019-04-25 20:00:00 13.1 19 Oeste 44 Oeste 0 -- -- 55
2019-04-25 19:00:00 13.3 16 Oeste 45 Sudoeste 0.4 -- -- 63
2019-04-25 18:00:00 14.3 28 Sudoeste 45 Sudoeste 0 -- -- 55
2019-04-25 17:00:00 11.8 16 Oeste 45 Sudoeste 0.6 -- -- 75
2019-04-25 16:00:00 13.7 28 Sudoeste 43 Sudoeste 0 -- -- 60
2019-04-25 15:00:00 12.9 25 Sudoeste 44 Sudoeste 0 -- -- 64
2019-04-25 14:00:00 10.5 20 Sudoeste 34 Sudoeste 0.2 -- -- 80
2019-04-25 13:00:00 10.4 14 Oeste 33 Oeste 0.6 -- -- 79
2019-04-25 12:00:00 11.5 18 Sudoeste 40 Oeste 0 -- -- 75
2019-04-25 11:00:00 10.2 25 Sudoeste 45 Sudoeste 0 -- -- 78
2019-04-25 10:00:00 8.7 9 Sudoeste 24 Sudoeste 0 -- -- 92
2019-04-25 09:00:00 7.8 14 Sudoeste 21 Oeste 0 -- -- 95
2019-04-25 08:00:00 7.2 9 Sudoeste 24 Sudoeste 0.8 -- -- 96
2019-04-25 07:00:00 7.8 5 Sudoeste 14 Sudoeste 0 -- -- 93
2019-04-25 06:00:00 7.4 7 Sudoeste 15 Oeste 0 -- -- 94
2019-04-25 05:00:00 7.6 8 Oeste 16 Sudoeste 0 -- -- 91
2019-04-25 04:00:00 7.8 3 Oeste 17 Sudoeste 0 -- -- 95
2019-04-25 03:00:00 8.9 12 Sudoeste 25 Sudoeste 0 -- -- 93
2019-04-25 02:00:00 9.5 17 Sudoeste 29 Sudoeste 0 -- -- 94
2019-04-25 01:00:00 10 16 Sudoeste 32 Sudoeste 0 -- -- 96
2019-04-25 00:00:00 10.4 15 Sudoeste 37 Sudoeste 0.2 -- -- 97
2019-04-24 23:00:00 11 27 Sudoeste 45 Sudoeste 2 -- -- 95
2019-04-24 22:00:00 11.7 22 Sudoeste 37 Sudoeste 0 -- -- 94
2019-04-24 21:00:00 11.6 21 Sudoeste 39 Sudoeste 0.2 -- -- 91
2019-04-24 20:00:00 12.2 17 Sudoeste 33 Sudoeste 0.4 -- -- 92
2019-04-24 19:00:00 12.3 16 Sudoeste 35 Sudoeste 0.8 -- -- 94
2019-04-24 18:00:00 11.6 20 Sudoeste 39 Sudoeste 1.4 -- -- 92
2019-04-24 17:00:00 11.5 21 Sudoeste 52 Sudoeste 0.6 -- -- 89
2019-04-24 16:00:00 15.2 30 Sudoeste 53 Sur 0 -- -- 79
2019-04-24 15:00:00 15.4 24 Sudoeste 43 Sudoeste 0 -- -- 81
2019-04-24 14:00:00 12.5 22 Sudoeste 46 Sudoeste 0 -- -- 93
2019-04-24 13:00:00 12 17 Sudoeste 33 Sudoeste 0.8 -- -- 98
2019-04-24 12:00:00 10.6 16 Sudoeste 32 Sur 5 -- -- 98
2019-04-24 11:00:00 10.1 20 Sur 35 Sudoeste 1.8 -- -- 97
2019-04-24 10:00:00 9 11 Sudoeste 31 Sur 1.8 -- -- 99
2019-04-24 09:00:00 7.7 7 Sur 19 Sur 1.2 -- -- 99
2019-04-24 08:00:00 6.9 11 Sudeste 25 Sudeste 1.8 -- -- 98
2019-04-24 07:00:00 6.8 12 Sudeste 27 Sur 2.2 -- -- 98
2019-04-24 06:00:00 6.9 8 Sur 21 Sudeste 1 -- -- 96
2019-04-24 05:00:00 6.6 5 Sudeste 12 Sudeste 0.2 -- -- 93
2019-04-24 04:00:00 6.3 4 Sudoeste 16 Sudoeste 0.2 -- -- 92
2019-04-24 03:00:00 6.2 8 Sudoeste 17 Sudoeste 0 -- -- 91
2019-04-24 02:00:00 5.9 4 Oeste 9 Sudoeste 0 -- -- 91
2019-04-24 01:00:00 5.8 6 Sudoeste 16 Oeste 0 -- -- 86
2019-04-24 00:00:00 6.2 10 Sudoeste 17 Sudoeste 0 -- -- 83
2019-04-23 23:00:00 7.1 13 Sudoeste 23 Sudoeste 0 -- -- 80
2019-04-23 22:00:00 7.6 15 Sudoeste 30 Sudoeste 0 -- -- 76
2019-04-23 21:00:00 8.1 16 Sudoeste 38 Oeste 0 -- -- 72
2019-04-23 20:00:00 10.5 22 Sudoeste 48 Sudoeste 0 -- -- 58
2019-04-23 19:00:00 11.5 23 Oeste 44 Sudoeste 0 -- -- 60
2019-04-23 18:00:00 11.3 19 Sudoeste 40 Oeste 0 -- -- 63
2019-04-23 17:00:00 12 22 Sudoeste 38 Sudoeste 0 -- -- 64
2019-04-23 16:00:00 10.3 20 Oeste 45 Sudoeste 0 -- -- 71
2019-04-23 15:00:00 10.2 24 Sudoeste 52 Oeste 0.8 -- -- 74
2019-04-23 14:00:00 10.2 18 Sudoeste 33 Sudoeste 0 -- -- 81
2019-04-23 13:00:00 9.4 17 Sudoeste 41 Sudoeste 1.2 -- -- 87
2019-04-23 12:00:00 10.5 14 Sudoeste 35 Sudoeste 0 -- -- 74
2019-04-23 11:00:00 9.5 16 Sudoeste 33 Sudoeste 0 -- -- 77
2019-04-23 10:00:00 8.1 18 Sudoeste 32 Sudoeste 0 -- -- 87
2019-04-23 09:00:00 6.7 12 Sudoeste 25 Sudoeste 0 -- -- 96
2019-04-23 08:00:00 7 16 Sudoeste 30 Sudoeste 0 -- -- 95
2019-04-23 07:00:00 7.4 13 Sudoeste 29 Sudoeste 0.2 -- -- 94
2019-04-23 06:00:00 8.2 12 Sudoeste 23 Sudoeste 0.4 -- -- 96
2019-04-23 05:00:00 8.7 13 Sudoeste 22 Sudoeste 2 -- -- 97
2019-04-23 04:00:00 9.3 10 Sudoeste 36 Oeste 0.2 -- -- 92
2019-04-23 03:00:00 11.3 20 Sudoeste 35 Sudoeste -- -- -- 84
2019-04-23 02:00:00 12.5 16 Sudoeste 41 Sudoeste 0 -- -- 76
2019-04-23 01:00:00 14.3 13 Sudoeste 31 Sudoeste 0 -- -- 68
2019-04-23 00:00:00 15.1 14 Sudoeste 28 Sur 0 -- -- 67
2019-04-22 23:00:00 15.4 6 Sudoeste 18 Sudoeste 0 -- -- 63
2019-04-22 22:00:00 16.3 13 Sudoeste 27 Sudoeste 0 -- -- 58
2019-04-22 21:00:00 17.1 18 Sudoeste 36 Sudoeste 0 -- -- 53
2019-04-22 20:00:00 18.3 19 Sudoeste 32 Sudoeste 0 -- -- 48
2019-04-22 19:00:00 19.3 20 Sudoeste 30 Sudoeste 0 -- -- 47
2019-04-22 18:00:00 20.4 11 Sudoeste 28 Sudoeste 0 -- -- 42
2019-04-22 17:00:00 21.1 13 Sudoeste 28 Sudoeste 0 -- -- 39
2019-04-22 16:00:00 21.1 10 Sur 21 Sudoeste 0 -- -- 41
2019-04-22 15:00:00 19.5 9 Sudoeste 22 Sudoeste 0 -- -- 47
2019-04-22 14:00:00 19 6 Sudoeste 17 Sur 0 -- -- 47
2019-04-22 13:00:00 18.3 7 Sudoeste 18 Sudoeste 0 -- -- 50
2019-04-22 12:00:00 16.8 3 Nordeste 13 Sudeste 0 -- -- 54
2019-04-22 11:00:00 14.4 8 Este 14 Este 0 -- -- 60
2019-04-22 10:00:00 12.2 6 Este 10 Este 0 -- -- 75
2019-04-22 09:00:00 9.5 4 Este 10 Nordeste 0 -- -- 84
2019-04-22 08:00:00 8.6 9 Nordeste 12 Nordeste 0 -- -- 82
2019-04-22 07:00:00 8.4 8 Nordeste 10 Nordeste 0 -- -- 83
2019-04-22 06:00:00 8.5 7 Nordeste 9 Nordeste 0 -- -- 84
2019-04-22 05:00:00 9.1 4 Nordeste 8 Este 0 -- -- 83
2019-04-22 04:00:00 10.2 4 Este 13 Nordeste 0 -- -- 80
2019-04-22 03:00:00 10.8 9 Nordeste 14 Nordeste 0 -- -- 78
2019-04-22 02:00:00 10.6 8 Nordeste 11 Nordeste 0 -- -- 78
2019-04-22 01:00:00 11.8 4 Nordeste 12 Nordeste 0 -- -- 74
2019-04-22 00:00:00 12.4 9 Nordeste 17 Nordeste 0 -- -- 71
2019-04-21 23:00:00 12.8 12 Nordeste 18 Nordeste 0 -- -- 69
2019-04-21 22:00:00 12.4 7 Nordeste 15 Este 0 -- -- 71
2019-04-21 21:00:00 13.8 9 Nordeste 21 Este 0 -- -- 66
2019-04-21 20:00:00 14.9 13 Este 23 Este 0 -- -- 59
2019-04-21 19:00:00 15.7 16 Este 26 Este 0 -- -- 56
2019-04-21 18:00:00 17.2 12 Este 19 Este 0 -- -- 53
2019-04-21 17:00:00 17.8 9 Este 18 Sudeste 0 -- -- 51
2019-04-21 16:00:00 16.6 10 Nordeste 22 Nordeste 0 -- -- 55
2019-04-21 15:00:00 19.2 11 Este 25 Sudeste 0 -- -- 49
2019-04-21 14:00:00 17.8 12 Este 26 Este 0 -- -- 53
2019-04-21 13:00:00 17.1 12 Este 21 Este 0 -- -- 57
2019-04-21 12:00:00 15.8 12 Este 22 Este 0 -- -- 58
2019-04-21 11:00:00 14.5 13 Nordeste 21 Sudeste 0 -- -- 60
2019-04-21 10:00:00 13 8 Este 14 Este 0 -- -- 71
2019-04-21 09:00:00 10.6 4 Nordeste 10 Nordeste 0 -- -- 80
2019-04-21 08:00:00 8.6 10 Nordeste 15 Nordeste 0 -- -- 87
2019-04-21 07:00:00 8.9 9 Este 15 Este 0 -- -- 85
2019-04-21 06:00:00 9.7 7 Este 27 Este 0 -- -- 81
2019-04-21 05:00:00 10 10 Nordeste 27 Nordeste 0 -- -- 80
2019-04-21 04:00:00 10.5 16 Nordeste 30 Nordeste 0 -- -- 77
2019-04-21 03:00:00 11 19 Nordeste 39 Este 0 -- -- 77
2019-04-21 02:00:00 11.8 25 Este 43 Este 0 -- -- 76
2019-04-21 01:00:00 12.6 19 Este 36 Este 0 -- -- 73
2019-04-21 00:00:00 12.5 11 Nordeste 24 Este 0 -- -- 75
2019-04-20 23:00:00 14.3 3 Sur 17 Sur 0 -- -- 67
2019-04-20 22:00:00 16.3 10 Sur 20 Sur 0 -- -- 61
2019-04-20 21:00:00 18.3 11 Este 28 Este 0 -- -- 49
2019-04-20 20:00:00 20.4 18 Este 32 Este 0 -- -- 43
2019-04-20 19:00:00 21.8 19 Este 30 Este 0 -- -- 38
2019-04-20 18:00:00 22.8 16 Este 30 Sudeste 0 -- -- 39
2019-04-20 17:00:00 22.6 18 Nordeste 30 Este 0 -- -- 39
2019-04-20 16:00:00 22.2 8 Este 21 Este 0 -- -- 47
2019-04-20 15:00:00 21.2 10 Nordeste 24 Nordeste 0 -- -- 52
2019-04-20 14:00:00 20 9 Este 24 Este 0 -- -- 49
2019-04-20 13:00:00 18.3 14 Este 24 Este 0 -- -- 53
2019-04-20 12:00:00 17.1 8 Este 17 Este 0 -- -- 62
2019-04-20 11:00:00 15.2 9 Este 16 Este 0 -- -- 66
2019-04-20 10:00:00 14 8 Nordeste 14 Nordeste 0 -- -- 72
2019-04-20 09:00:00 11.1 4 Nordeste 9 Nordeste 0 -- -- 84
2019-04-20 08:00:00 10.8 8 Nordeste 19 Norte 0 -- -- 84
2019-04-20 07:00:00 10.2 10 Nordeste 21 Nordeste 0 -- -- 90
2019-04-20 06:00:00 9.9 10 Este 21 Nordeste 0 -- -- 94
2019-04-20 05:00:00 9.7 14 Nordeste 28 Nordeste 0.2 -- -- 94
2019-04-20 04:00:00 9.6 13 Nordeste 27 Nordeste 0 -- -- 92
2019-04-20 03:00:00 9.5 13 Nordeste 24 Nordeste 0 -- -- 93
2019-04-20 02:00:00 9.9 15 Nordeste 28 Nordeste 0 -- -- 92
2019-04-20 01:00:00 10.5 18 Nordeste 30 Este 0 -- -- 91
2019-04-20 00:00:00 10.6 13 Nordeste 25 Este 0 -- -- 91
2019-04-19 23:00:00 10.8 17 Este 25 Este 0.2 -- -- 90
2019-04-19 22:00:00 11.7 14 Este 25 Este 0 -- -- 85
2019-04-19 21:00:00 12.5 15 Este 32 Este 0 -- -- 82
2019-04-19 20:00:00 13.3 22 Este 33 Este 0 -- -- 75
2019-04-19 19:00:00 13.9 18 Nordeste 36 Nordeste 0 -- -- 76
2019-04-19 18:00:00 14.9 22 Este 34 Este 0 -- -- 70
2019-04-19 17:00:00 16 24 Este 42 Nordeste 0 -- -- 66
2019-04-19 16:00:00 16.4 17 Este 37 Este 0 -- -- 65
2019-04-19 15:00:00 15.9 20 Nordeste 33 Nordeste 0 -- -- 67
2019-04-19 14:00:00 16.7 15 Este 35 Nordeste 0 -- -- 71
2019-04-19 13:00:00 15.5 14 Este 24 Este 0 -- -- 70
2019-04-19 12:00:00 13.7 15 Nordeste 24 Nordeste 0 -- -- 81
2019-04-19 11:00:00 11.5 3 Este 13 Nordeste 0 -- -- 91
2019-04-19 10:00:00 10.1 9 Nordeste 17 Nordeste 0 -- -- 100
2019-04-19 09:00:00 8.9 8 Este 12 Nordeste 0 -- -- 100
2019-04-19 08:00:00 8.5 0 Calma 6 Este 0 -- -- 100
2019-04-19 07:00:00 8.1 4 Nordeste 6 Nordeste 0 -- -- 100
2019-04-19 06:00:00 7.6 3 Nordeste 5 Este 0 -- -- 99
2019-04-19 05:00:00 7.7 4 Nordeste 8 Este 0 -- -- 96
2019-04-19 04:00:00 8.7 2 Este 6 Oeste 0 -- -- 94
2019-04-19 03:00:00 9.7 5 Sudoeste 11 Sudoeste 0 -- -- 91
2019-04-19 02:00:00 10.3 4 Oeste 9 Oeste 0 -- -- 83
2019-04-19 01:00:00 10.4 4 Oeste 10 Oeste 0 -- -- 87
2019-04-19 00:00:00 10.3 8 Sudoeste 13 Sudoeste 0 -- -- 91
2019-04-18 23:00:00 10.8 0 Calma 10 Noroeste 0 -- -- 84
2019-04-18 22:00:00 11.1 4 Nordeste 12 Nordeste 0 -- -- 87
2019-04-18 21:00:00 11.3 5 Nordeste 11 Norte 0 -- -- 87
2019-04-18 20:00:00 11.7 7 Norte 18 Nordeste 0.2 -- -- 85
2019-04-18 19:00:00 12.6 15 Nordeste 31 Nordeste 0 -- -- 81
2019-04-18 18:00:00 13.7 3 Norte 6 Norte 0 -- -- 79
2019-04-18 17:00:00 13 0 Calma 7 Noroeste 0.2 -- -- 79
2019-04-18 16:00:00 12 3 Norte 26 Oeste 0 -- -- 79
2019-04-18 15:00:00 14.9 10 Sur 19 Sudoeste 0 -- -- 74
2019-04-18 14:00:00 16.4 4 Este 18 Norte 0 -- -- 67
2019-04-18 13:00:00 15.1 4 Sudeste 13 Sudeste 0 -- -- 71
2019-04-18 12:00:00 14.2 3 Nordeste 12 Sudeste 0 -- -- 80
2019-04-18 11:00:00 11.5 5 Este 8 Este 0 -- -- 92
2019-04-18 10:00:00 10.8 5 Nordeste 8 Este 0 -- -- 94
2019-04-18 09:00:00 9.8 4 Nordeste 7 Nordeste 0.4 -- -- 99
2019-04-18 08:00:00 9.5 3 Este 6 Este 0 -- -- 98
2019-04-18 07:00:00 9.8 0 Calma 4 Sudeste 0 -- -- 97
2019-04-18 06:00:00 9.8 2 Sudeste 10 Sudeste 0 -- -- 97
2019-04-18 05:00:00 9.7 7 Sudeste 13 Sur 0 -- -- 97
2019-04-18 04:00:00 10.1 7 Sudoeste 12 Sudoeste 0 -- -- 95
2019-04-18 03:00:00 10.3 2 Sur 8 Sudoeste 0 -- -- 95
2019-04-18 02:00:00 10.7 4 Sur 13 Sudeste 0 -- -- 93
2019-04-18 01:00:00 10.9 2 Sudeste 12 Sur 0 -- -- 95
2019-04-18 00:00:00 11 7 Sur 14 Sur 0.2 -- -- 96
2019-04-17 23:00:00 10.9 6 Sudeste 15 Sudeste 1 -- -- 95
2019-04-17 22:00:00 11 7 Sudeste 14 Sudeste 1.8 -- -- 95
2019-04-17 21:00:00 11.3 5 Sudeste 10 Sudeste 1.8 -- -- 93
2019-04-17 20:00:00 11.5 2 Oeste 23 Sudoeste 1 -- -- 92
2019-04-17 19:00:00 12.7 20 Sudoeste 41 Sudoeste 0 -- -- 78
2019-04-17 18:00:00 15.1 21 Sudoeste 50 Sudoeste 0 -- -- 78
2019-04-17 17:00:00 20.6 18 Sudeste 36 Sudeste 0 -- -- 44
2019-04-17 16:00:00 20.2 17 Sudeste 39 Sudeste 0 -- -- 43
2019-04-17 15:00:00 19.7 18 Sur 40 Sur 0 -- -- 44
2019-04-17 14:00:00 18.8 14 Sudeste 33 Sudeste 0 -- -- 47
2019-04-17 13:00:00 17.7 17 Sudeste 30 Sudeste 0 -- -- 46
2019-04-17 12:00:00 16 14 Este 23 Nordeste 0 -- -- 64
2019-04-17 11:00:00 14.2 11 Este 19 Este 0 -- -- 71
2019-04-17 10:00:00 13.1 10 Nordeste 15 Nordeste 0 -- -- 72
2019-04-17 09:00:00 11.3 8 Nordeste 11 Nordeste 0 -- -- 74
2019-04-17 08:00:00 11 0 Calma 5 Sudeste 0 -- -- 71
2019-04-17 07:00:00 11.2 3 Sudeste 10 Este 0 -- -- 69
2019-04-17 06:00:00 12.6 5 Sudeste 9 Este 0 -- -- 62
2019-04-17 05:00:00 11.8 6 Nordeste 12 Nordeste 0 -- -- 65
2019-04-17 04:00:00 12.7 6 Este 13 Este 0 -- -- 58
2019-04-17 03:00:00 13.2 0 Calma 6 Este 0 -- -- 55
2019-04-17 02:00:00 14.1 4 Nordeste 11 Sudeste 0 -- -- 54
2019-04-17 01:00:00 14.5 7 Este 14 Este 0 -- -- 54
2019-04-17 00:00:00 15.5 7 Este 24 Sudeste 0 -- -- 52
2019-04-16 23:00:00 17.7 8 Este 28 Este 0 -- -- 44
2019-04-16 22:00:00 17.7 15 Este 22 Nordeste 0 -- -- 45
2019-04-16 21:00:00 17.8 10 Nordeste 20 Este 0 -- -- 47
2019-04-16 20:00:00 20.8 14 Sudeste 24 Sudeste 0 -- -- 33
2019-04-16 19:00:00 21.7 12 Sudeste 28 Sudeste 0 -- -- 35
2019-04-16 18:00:00 22.1 16 Sudeste 28 Sudeste 0 -- -- 31
2019-04-16 17:00:00 22.1 13 Sudeste 30 Sudeste 0 -- -- 33
2019-04-16 16:00:00 21.3 10 Sudeste 27 Este 0 -- -- 33
2019-04-16 15:00:00 20.5 14 Sudeste 25 Sur 0 -- -- 37
2019-04-16 14:00:00 19.5 12 Sudeste 26 Sur 0 -- -- 43
2019-04-16 13:00:00 18.1 8 Este 19 Sudeste 0 -- -- 54
2019-04-16 12:00:00 15.7 6 Sudeste 16 Este 0 -- -- 63
2019-04-16 11:00:00 14.1 6 Este 12 Nordeste 0 -- -- 69
2019-04-16 10:00:00 11.5 4 Este 8 Este 0 -- -- 79
2019-04-16 09:00:00 8.1 2 Noroeste 8 Este 0 -- -- 93
2019-04-16 08:00:00 6.6 5 Este 6 Este 0 -- -- 96
2019-04-16 07:00:00 6.5 4 Este 8 Este 0 -- -- 95
2019-04-16 06:00:00 6.6 6 Este 8 Este 0 -- -- 95
2019-04-16 05:00:00 7.5 3 Nordeste 8 Sudoeste 0 -- -- 90
2019-04-16 04:00:00 9.9 0 Calma 10 Sudoeste 0 -- -- 80
2019-04-16 03:00:00 11 4 Sudoeste 13 Sudoeste 0 -- -- 75
2019-04-16 02:00:00 10.8 4 Oeste 10 Oeste 0 -- -- 80
2019-04-16 01:00:00 11.6 0 Calma 13 Noroeste 0 -- -- 75
2019-04-16 00:00:00 12.4 6 Oeste 29 Oeste 0 -- -- 69
2019-04-15 23:00:00 13.6 10 Noroeste 26 Noroeste 0 -- -- 61
2019-04-15 22:00:00 13.8 6 Oeste 13 Oeste 0 -- -- 65
2019-04-15 21:00:00 15.7 8 Oeste 31 Oeste 0 -- -- 60
2019-04-15 20:00:00 16.3 8 Sudoeste 22 Sudoeste 0 -- -- 65
2019-04-15 19:00:00 16.9 12 Sudoeste 26 Sudoeste 0 -- -- 67
2019-04-15 18:00:00 15.4 13 Sudoeste 24 Sudoeste 0.6 -- -- 81
2019-04-15 17:00:00 13.1 10 Oeste 42 Oeste 0 -- -- 83
2019-04-15 16:00:00 17.5 21 Oeste 40 Oeste 0 -- -- 60
2019-04-15 15:00:00 20.5 17 Sudoeste 36 Oeste 0 -- -- 50
2019-04-15 14:00:00 20.2 15 Oeste 30 Sudoeste 0 -- -- 52
2019-04-15 13:00:00 19.3 11 Sudoeste 29 Sudoeste 0 -- -- 60
2019-04-15 12:00:00 18.4 13 Sudoeste 23 Sur 0 -- -- 68
2019-04-15 11:00:00 17 13 Sudoeste 20 Sudoeste 0 -- -- 76
2019-04-15 10:00:00 16 0 Calma 7 Sur 0 -- -- 76
2019-04-15 09:00:00 14.9 3 Sudoeste 10 Nordeste 0 -- -- 82
2019-04-15 08:00:00 14 6 Nordeste 10 Nordeste 0 -- -- 86
2019-04-15 07:00:00 14.8 5 Nordeste 10 Nordeste 0 -- -- 82
2019-04-15 06:00:00 15.3 5 Este 9 Nordeste 0 -- -- 79
2019-04-15 05:00:00 15.4 4 Nordeste 8 Este 0 -- -- 78
2019-04-15 04:00:00 15.8 2 Norte 8 Nordeste 0 -- -- 79
2019-04-15 03:00:00 15.7 4 Norte 8 Norte 0 -- -- 79
2019-04-15 02:00:00 16 2 Este 4 Nordeste 0 -- -- 76
2019-04-15 01:00:00 16 3 Nordeste 6 Nordeste 0 -- -- 77
2019-04-15 00:00:00 17.2 0 Calma 3 Sur 0 -- -- 71
2019-04-14 23:00:00 17.9 3 Sudoeste 4 Sur 0 -- -- 68
2019-04-14 22:00:00 18.9 3 Sudoeste 7 Sudoeste 0 -- -- 66
2019-04-14 21:00:00 20.1 5 Sudoeste 6 Sudoeste 0 -- -- 62
2019-04-14 20:00:00 21.5 0 Calma 6 Oeste 0 -- -- 57
2019-04-14 19:00:00 21.6 5 Noroeste 15 Sudoeste 0 -- -- 56
2019-04-14 18:00:00 22 10 Sudoeste 27 Sudoeste 0 -- -- 55
2019-04-14 17:00:00 22.1 7 Oeste 20 Oeste 0 -- -- 54
2019-04-14 16:00:00 21.7 9 Oeste 19 Sudoeste 0 -- -- 56
2019-04-14 15:00:00 21.7 12 Sudoeste 20 Sudoeste 0 -- -- 59
2019-04-14 14:00:00 20.4 6 Oeste 16 Sur 0 -- -- 64
2019-04-14 13:00:00 19.6 11 Sudoeste 22 Sudoeste 0 -- -- 68
2019-04-14 12:00:00 16.8 8 Sudoeste 14 Sudoeste 0 -- -- 80
2019-04-14 11:00:00 13.9 6 Sudoeste 13 Sudoeste 0 -- -- 95
2019-04-14 10:00:00 12.5 5 Sudoeste 10 Sudoeste 0 -- -- 100
2019-04-14 09:00:00 12.1 3 Oeste 9 Sudoeste 0 -- -- 100
2019-04-14 08:00:00 11.5 5 Oeste 9 Sudoeste 0 -- -- 99
2019-04-14 07:00:00 11.8 8 Sudoeste 13 Oeste 0 -- -- 98
2019-04-14 06:00:00 12 6 Oeste 17 Oeste 0 -- -- 98
2019-04-14 05:00:00 12.2 7 Oeste 14 Sudoeste 0 -- -- 97
2019-04-14 04:00:00 12.3 5 Sudoeste 13 Oeste 0 -- -- 94
2019-04-14 03:00:00 13.1 5 Oeste 16 Sudoeste 0 -- -- 92
2019-04-14 02:00:00 14.1 9 Sudoeste 21 Sudoeste 0 -- -- 86
2019-04-14 01:00:00 14.7 9 Oeste 21 Sudoeste 0 -- -- 82
2019-04-14 00:00:00 15.7 12 Oeste 19 Oeste 0 -- -- 75
2019-04-13 23:00:00 16.1 8 Oeste 16 Oeste 0 -- -- 67
2019-04-13 22:00:00 17.3 11 Oeste 21 Oeste 0 -- -- 57
2019-04-13 21:00:00 17.9 9 Oeste 19 Oeste 0 -- -- 43
2019-04-13 20:00:00 19.1 11 Oeste 27 Oeste 0 -- -- 40
2019-04-13 19:00:00 21.7 10 Oeste 26 Sudoeste 0 -- -- 33
2019-04-13 18:00:00 22.6 11 Sudoeste 25 Oeste 0 -- -- 34
2019-04-13 17:00:00 23 9 Oeste 23 Sudoeste 0 -- -- 35
2019-04-13 16:00:00 22.1 9 Oeste 23 Sudoeste 0 -- -- 39
2019-04-13 15:00:00 21.3 6 Sudoeste 17 Sudoeste 0 -- -- 37
2019-04-13 14:00:00 20 5 Sudoeste 13 Sudeste 0 -- -- 40
2019-04-13 13:00:00 19.4 3 Sudeste 8 Sur 0 -- -- 41
2019-04-13 12:00:00 17 3 Este 9 Sudeste 0 -- -- 51
2019-04-13 11:00:00 14.1 3 Sudeste 9 Este 0 -- -- 59
2019-04-13 10:00:00 11.2 5 Este 8 Nordeste 0 -- -- 66
2019-04-13 09:00:00 8.4 6 Este 9 Este 0 -- -- 72
2019-04-13 08:00:00 7.1 2 Nordeste 9 Este 0 -- -- 75
2019-04-13 07:00:00 8 4 Nordeste 6 Nordeste 0 -- -- 72
2019-04-13 06:00:00 7.9 0 Calma 6 Nordeste 0 -- -- 72
2019-04-13 05:00:00 9.5 3 Este 12 Noroeste 0 -- -- 69
2019-04-13 04:00:00 11.5 3 Sur 11 Sudoeste 0 -- -- 57
2019-04-13 03:00:00 12.2 4 Oeste 10 Sudoeste 0 -- -- 52
2019-04-13 02:00:00 12.1 2 Sudoeste 9 Sur 0 -- -- 53
2019-04-13 01:00:00 14.2 6 Noroeste 15 Noroeste 0 -- -- 47
2019-04-13 00:00:00 15 9 Norte 17 Oeste 0 -- -- 44
2019-04-12 23:00:00 15.2 10 Noroeste 18 Oeste 0 -- -- 46
2019-04-12 22:00:00 14.8 6 Oeste 12 Oeste 0 -- -- 48
2019-04-12 21:00:00 17 4 Oeste 12 Noroeste 0 -- -- 42
2019-04-12 20:00:00 18.6 9 Noroeste 17 Oeste 0 -- -- 38
2019-04-12 19:00:00 19.3 6 Noroeste 17 Noroeste 0 -- -- 37
2019-04-12 18:00:00 19.9 8 Noroeste 20 Noroeste 0 -- -- 30
2019-04-12 17:00:00 19.9 13 Oeste 23 Noroeste 0 -- -- 34
2019-04-12 16:00:00 20 8 Oeste 18 Oeste 0 -- -- 34
2019-04-12 15:00:00 18.2 8 Noroeste 21 Nordeste 0 -- -- 30
2019-04-12 14:00:00 18.3 5 Sudeste 15 Sur 0 -- -- 35
2019-04-12 13:00:00 17.1 7 Sudeste 15 Este 0 -- -- 37
2019-04-12 12:00:00 15.9 9 Sudeste 15 Sudeste 0 -- -- 41
2019-04-12 11:00:00 13.9 7 Este 12 Sudeste 0 -- -- 53
2019-04-12 10:00:00 10.7 3 Este 6 Este 0 -- -- 60
2019-04-12 09:00:00 8.5 4 Este 10 Nordeste 0 -- -- 63
2019-04-12 08:00:00 9.5 5 Nordeste 14 Norte 0 -- -- 53
2019-04-12 07:00:00 9.6 5 Nordeste 17 Norte 0 -- -- 54
2019-04-12 06:00:00 9 3 Norte 9 Norte 0 -- -- 55
2019-04-12 05:00:00 9.9 4 Nordeste 12 Norte 0 -- -- 54
2019-04-12 04:00:00 10.4 3 Norte 10 Norte 0 -- -- 51
2019-04-12 03:00:00 9.7 6 Nordeste 8 Nordeste 0 -- -- 53
2019-04-12 02:00:00 10.1 4 Norte 11 Norte 0 -- -- 54
2019-04-12 01:00:00 11.5 5 Norte 20 Norte 0 -- -- 51
2019-04-12 00:00:00 12.6 14 Norte 33 Norte 0 -- -- 47
2019-04-11 23:00:00 13.4 17 Norte 30 Norte 0 -- -- 43
2019-04-11 22:00:00 13.9 19 Norte 33 Norte 0 -- -- 44
2019-04-11 21:00:00 14.8 15 Norte 30 Norte 0 -- -- 39
2019-04-11 20:00:00 16.1 15 Norte 26 Noroeste 0 -- -- 37
2019-04-11 19:00:00 17.1 15 Noroeste 30 Noroeste 0 -- -- 36
2019-04-11 18:00:00 17.8 13 Noroeste 24 Noroeste 0 -- -- 36
2019-04-11 17:00:00 18.2 10 Noroeste 24 Noroeste 0 -- -- 38
2019-04-11 16:00:00 17.8 10 Oeste 24 Norte 0 -- -- 36
2019-04-11 15:00:00 17 10 Norte 23 Noroeste 0 -- -- 42
2019-04-11 14:00:00 16.1 8 Noroeste 24 Noroeste 0 -- -- 52
2019-04-11 13:00:00 15.1 12 Noroeste 21 Noroeste 0 -- -- 54
2019-04-11 12:00:00 13.9 9 Norte 17 Norte 0 -- -- 58
2019-04-11 11:00:00 12.5 7 Noroeste 15 Noroeste 0 -- -- 64
2019-04-11 10:00:00 10 4 Oeste 9 Norte 0 -- -- 75
2019-04-11 09:00:00 6.5 0 Calma 12 Este 0 -- -- 84
2019-04-11 08:00:00 7.2 6 Este 9 Este 0 -- -- 81
2019-04-11 07:00:00 8.7 3 Sudoeste 24 Norte 0 -- -- 74
2019-04-11 06:00:00 8.9 13 Norte 28 Noroeste 0 -- -- 75
2019-04-11 05:00:00 9.3 18 Norte 32 Norte 0 -- -- 73
2019-04-11 04:00:00 9.4 17 Norte 32 Norte 0 -- -- 72
2019-04-11 03:00:00 10 21 Norte 37 Noroeste 0 -- -- 68
2019-04-11 02:00:00 9.7 23 Noroeste 37 Noroeste 0 -- -- 70
2019-04-11 01:00:00 10.1 22 Norte 38 Noroeste 0 -- -- 68
2019-04-11 00:00:00 9.7 17 Norte 36 Noroeste 0 -- -- 70
2019-04-10 23:00:00 10.5 19 Noroeste 42 Norte 0 -- -- 66
2019-04-10 22:00:00 11.1 18 Norte 35 Norte 0 -- -- 62
2019-04-10 21:00:00 11.7 20 Norte 39 Norte 0 -- -- 58
2019-04-10 20:00:00 15.6 12 Noroeste 30 Noroeste 0 -- -- 44
2019-04-10 19:00:00 16.5 18 Noroeste 31 Noroeste 0 -- -- 41
2019-04-10 18:00:00 17 17 Noroeste 37 Oeste 0 -- -- 43
2019-04-10 17:00:00 17.1 17 Oeste 40 Oeste 0 -- -- 48
2019-04-10 16:00:00 15.7 16 Oeste 37 Oeste 0 -- -- 50
2019-04-10 15:00:00 14.9 18 Oeste 37 Noroeste 0 -- -- 54
2019-04-10 14:00:00 14.5 16 Oeste 41 Oeste 0 -- -- 57
2019-04-10 13:00:00 -- -- -- -- -- -- -- -- --
2019-04-10 12:00:00 -- -- -- -- -- -- -- -- --
2019-04-10 11:00:00 -- -- -- -- -- -- -- -- --
2019-04-10 10:00:00 -- -- -- -- -- -- -- -- --
2019-04-10 09:00:00 -- -- -- -- -- -- -- -- --
2019-04-10 08:00:00 -- -- -- -- -- -- -- -- --
2019-04-10 07:00:00 -- -- -- -- -- -- -- -- --
2019-04-10 06:00:00 -- -- -- -- -- -- -- -- --
2019-04-10 05:00:00 -- -- -- -- -- -- -- -- --
2019-04-10 04:00:00 -- -- -- -- -- -- -- -- --
2019-04-10 03:00:00 -- -- -- -- -- -- -- -- --
2019-04-10 02:00:00 -- -- -- -- -- -- -- -- --
2019-04-10 01:00:00 -- -- -- -- -- -- -- -- --
2019-04-10 00:00:00 -- -- -- -- -- -- -- -- --
2019-04-09 23:00:00 -- -- -- -- -- -- -- -- --
2019-04-09 22:00:00 -- -- -- -- -- -- -- -- --
2019-04-09 21:00:00 -- -- -- -- -- -- -- -- --
2019-04-09 20:00:00 -- -- -- -- -- -- -- -- --
2019-04-09 19:00:00 -- -- -- -- -- -- -- -- --
2019-04-09 18:00:00 -- -- -- -- -- -- -- -- --
2019-04-09 17:00:00 -- -- -- -- -- -- -- -- --
2019-04-09 16:00:00 -- -- -- -- -- -- -- -- --
2019-04-09 15:00:00 -- -- -- -- -- -- -- -- --
2019-04-09 14:00:00 -- -- -- -- -- -- -- -- --
2019-04-09 13:00:00 -- -- -- -- -- -- -- -- --
2019-04-09 12:00:00 -- -- -- -- -- -- -- -- --
2019-04-09 11:00:00 -- -- -- -- -- -- -- -- --
2019-04-09 10:00:00 -- -- -- -- -- -- -- -- --
2019-04-09 09:00:00 -- -- -- -- -- -- -- -- --
2019-04-09 08:00:00 -- -- -- -- -- -- -- -- --
2019-04-09 07:00:00 -- -- -- -- -- -- -- -- --
2019-04-09 06:00:00 -- -- -- -- -- -- -- -- --
2019-04-09 05:00:00 -- -- -- -- -- -- -- -- --
2019-04-09 04:00:00 -- -- -- -- -- -- -- -- --
2019-04-09 03:00:00 -- -- -- -- -- -- -- -- --
2019-04-09 02:00:00 -- -- -- -- -- -- -- -- --
2019-04-09 01:00:00 -- -- -- -- -- -- -- -- --
2019-04-09 00:00:00 -- -- -- -- -- -- -- -- --
2019-04-08 23:00:00 -- -- -- -- -- -- -- -- --
2019-04-08 22:00:00 -- -- -- -- -- -- -- -- --
2019-04-08 21:00:00 -- -- -- -- -- -- -- -- --
2019-04-08 20:00:00 -- -- -- -- -- -- -- -- --
2019-04-08 19:00:00 -- -- -- -- -- -- -- -- --
2019-04-08 18:00:00 -- -- -- -- -- -- -- -- --
2019-04-08 17:00:00 -- -- -- -- -- -- -- -- --
2019-04-08 16:00:00 -- -- -- -- -- -- -- -- --
2019-04-08 15:00:00 -- -- -- -- -- -- -- -- --
2019-04-08 14:00:00 -- -- -- -- -- -- -- -- --
2019-04-08 13:00:00 -- -- -- -- -- -- -- -- --
2019-04-08 12:00:00 -- -- -- -- -- -- -- -- --
2019-04-08 11:00:00 -- -- -- -- -- -- -- -- --
2019-04-08 10:00:00 -- -- -- -- -- -- -- -- --
2019-04-08 09:00:00 -- -- -- -- -- -- -- -- --
2019-04-08 08:00:00 -- -- -- -- -- -- -- -- --
2019-04-08 07:00:00 -- -- -- -- -- -- -- -- --
2019-04-08 06:00:00 -- -- -- -- -- -- -- -- --
2019-04-08 05:00:00 -- -- -- -- -- -- -- -- --
2019-04-08 04:00:00 -- -- -- -- -- -- -- -- --
2019-04-08 03:00:00 -- -- -- -- -- -- -- -- --
2019-04-08 02:00:00 -- -- -- -- -- -- -- -- --
2019-04-08 01:00:00 -- -- -- -- -- -- -- -- --
2019-04-08 00:00:00 -- -- -- -- -- -- -- -- --
2019-04-07 23:00:00 -- -- -- -- -- -- -- -- --
2019-04-07 22:00:00 -- -- -- -- -- -- -- -- --
2019-04-07 21:00:00 -- -- -- -- -- -- -- -- --
2019-04-07 20:00:00 -- -- -- -- -- -- -- -- --
2019-04-07 19:00:00 -- -- -- -- -- -- -- -- --
2019-04-07 18:00:00 -- -- -- -- -- -- -- -- --
2019-04-07 17:00:00 -- -- -- -- -- -- -- -- --
2019-04-07 16:00:00 -- -- -- -- -- -- -- -- --
2019-04-07 15:00:00 -- -- -- -- -- -- -- -- --
2019-04-07 14:00:00 -- -- -- -- -- -- -- -- --
2019-04-07 13:00:00 -- -- -- -- -- -- -- -- --
2019-04-07 12:00:00 -- -- -- -- -- -- -- -- --
2019-04-07 11:00:00 -- -- -- -- -- -- -- -- --
2019-04-07 10:00:00 -- -- -- -- -- -- -- -- --
2019-04-07 09:00:00 -- -- -- -- -- -- -- -- --
2019-04-07 08:00:00 -- -- -- -- -- -- -- -- --
2019-04-07 07:00:00 -- -- -- -- -- -- -- -- --
2019-04-07 06:00:00 -- -- -- -- -- -- -- -- --
2019-04-07 05:00:00 -- -- -- -- -- -- -- -- --
2019-04-07 04:00:00 -- -- -- -- -- -- -- -- --
2019-04-07 03:00:00 6.9 14 Sudoeste 25 Sudoeste 0 -- -- 95
2019-04-07 02:00:00 7 13 Sudoeste 22 Sudoeste 0.2 -- -- 95
2019-04-07 01:00:00 6.9 12 Sudoeste 20 Sudoeste 0 -- -- 93
2019-04-07 00:00:00 6.8 10 Oeste 22 Sudoeste 0 -- -- 90
2019-04-06 23:00:00 7.2 13 Oeste 31 Oeste 0 -- -- 82
2019-04-06 22:00:00 6.8 11 Oeste 29 Sudoeste 0 -- -- 83
2019-04-06 21:00:00 8.4 18 Sudoeste 35 Oeste 0 -- -- 75
2019-04-06 20:00:00 9.5 13 Oeste 31 Oeste 0 -- -- 68
2019-04-06 19:00:00 10.4 18 Oeste 52 Sudoeste 0 -- -- 66
2019-04-06 18:00:00 9.8 21 Sudoeste 39 Sudoeste 0 -- -- 69
2019-04-06 17:00:00 9 20 Sudoeste 39 Oeste 0 -- -- 75
2019-04-06 16:00:00 6.8 20 Sudoeste 47 Sudoeste 2.2 -- -- 88
2019-04-06 15:00:00 11.1 16 Oeste 36 Oeste 0 -- -- 63
2019-04-06 14:00:00 9.4 20 Oeste 39 Sudoeste 0 -- -- 72
2019-04-06 13:00:00 7.5 17 Sudoeste 49 Sudoeste 0 -- -- 82
2019-04-06 12:00:00 6.6 22 Sudoeste 37 Oeste 0.8 -- -- 88
2019-04-06 11:00:00 7.2 19 Oeste 38 Oeste 0 -- -- 85
2019-04-06 10:00:00 6 13 Sudoeste 27 Sudoeste 0 -- -- 95
2019-04-06 09:00:00 5.6 11 Sudoeste 23 Sudoeste 0.8 -- -- 96
2019-04-06 08:00:00 5.6 11 Sudoeste 19 Sudoeste 0 -- -- 96
2019-04-06 07:00:00 5.1 8 Sudoeste 17 Sudoeste 0 -- -- 97
2019-04-06 06:00:00 4.8 10 Sudoeste 17 Sudoeste 0 -- -- 96
2019-04-06 05:00:00 5 4 Sudoeste 12 Sudoeste 0 -- -- 96
2019-04-06 04:00:00 4.6 4 Sudoeste 12 Sudoeste 0 -- -- 96
2019-04-06 03:00:00 4.8 6 Sudoeste 13 Sudoeste 0 -- -- 95
2019-04-06 02:00:00 4.2 6 Sudoeste 12 Sudoeste 0 -- -- 94
2019-04-06 01:00:00 4.1 5 Oeste 15 Sudoeste 0 -- -- 92
2019-04-06 00:00:00 4.9 9 Sudoeste 17 Oeste 0 -- -- 89
2019-04-05 23:00:00 5.8 11 Sudoeste 24 Oeste 0 -- -- 83
2019-04-05 22:00:00 6.9 14 Sudoeste 32 Sudoeste 0 -- -- 87
2019-04-05 21:00:00 7.4 14 Sudoeste 31 Sudoeste 0 -- -- 79
2019-04-05 20:00:00 7.9 19 Sudoeste 39 Sudoeste 0 -- -- 74
2019-04-05 19:00:00 8.7 19 Sudoeste 53 Sudoeste 0 -- -- 68
2019-04-05 18:00:00 11 14 Oeste 46 Sudoeste 0 -- -- 53
2019-04-05 17:00:00 11.8 19 Oeste 37 Oeste 0.2 -- -- 53
2019-04-05 16:00:00 11.7 16 Oeste 38 Noroeste 0 -- -- 53
2019-04-05 15:00:00 10.2 15 Oeste 39 Sudoeste 0 -- -- 63
2019-04-05 14:00:00 8.9 18 Sudoeste 40 Sudoeste 0 -- -- 75
2019-04-05 13:00:00 8.7 20 Sudoeste 33 Sudoeste 0 -- -- 75
2019-04-05 12:00:00 7.1 11 Oeste 29 Sudoeste 0 -- -- 82
2019-04-05 11:00:00 6.2 10 Oeste 34 Sudoeste 0.2 -- -- 88
2019-04-05 10:00:00 6.6 11 Sudoeste 26 Sudoeste 0 -- -- 94
2019-04-05 09:00:00 6.8 6 Sudoeste 15 Sudoeste 0 -- -- 97
2019-04-05 08:00:00 6.7 7 Sudoeste 13 Sudoeste 0 -- -- 97
2019-04-05 07:00:00 6.4 6 Sudoeste 22 Oeste 1.4 -- -- 96
2019-04-05 06:00:00 7.2 12 Sur 22 Sur 0.4 -- -- 96
2019-04-05 05:00:00 7.1 14 Sudoeste 23 Sur 0 -- -- 97
2019-04-05 04:00:00 6.6 13 Sur 21 Sur 0.4 -- -- 97
2019-04-05 03:00:00 6.6 11 Sur 18 Sudoeste 1.6 -- -- 95
2019-04-05 02:00:00 6.7 8 Sur 16 Sudoeste 0.8 -- -- 95
2019-04-05 01:00:00 6.8 6 Sur 10 Sur 0 -- -- 93
2019-04-05 00:00:00 6.8 5 Sudoeste 15 Oeste 0.2 -- -- 91
2019-04-04 23:00:00 7.2 8 Oeste 29 Sudoeste 0.4 -- -- 85
2019-04-04 22:00:00 9.3 15 Oeste 40 Sudoeste 0 -- -- 67
2019-04-04 21:00:00 12.4 17 Oeste 35 Oeste 0 -- -- 42
2019-04-04 20:00:00 13.3 13 Sudoeste 30 Oeste 0 -- -- 32
2019-04-04 19:00:00 14.3 15 Sudoeste 29 Sudoeste 0 -- -- 29
2019-04-04 18:00:00 15.2 13 Oeste 32 Sudoeste 0 -- -- 26
2019-04-04 17:00:00 16.6 11 Sudoeste 26 Sudoeste 0 -- -- 23
2019-04-04 16:00:00 16.1 6 Sudoeste 24 Sudoeste 0 -- -- 30
2019-04-04 15:00:00 15 8 Sudoeste 21 Sur 0 -- -- 34
2019-04-04 14:00:00 13.9 8 Sur 18 Sur 0 -- -- 33
2019-04-04 13:00:00 12.9 3 Este 16 Sudeste 0 -- -- 34
2019-04-04 12:00:00 11.5 7 Nordeste 16 Nordeste 0 -- -- 39
2019-04-04 11:00:00 9.9 7 Norte 21 Nordeste 0 -- -- 46
2019-04-04 10:00:00 7.1 11 Norte 34 Norte 0 -- -- 53
2019-04-04 09:00:00 4.8 19 Norte 45 Norte 0 -- -- 58
2019-04-04 08:00:00 4.3 26 Norte 50 Norte 0 -- -- 59
2019-04-04 07:00:00 5.2 32 Noroeste 51 Norte 0 -- -- 56
2019-04-04 06:00:00 5.8 28 Noroeste 46 Noroeste 0 -- -- 53
2019-04-04 05:00:00 6.6 31 Noroeste 48 Noroeste 0 -- -- 50
2019-04-04 04:00:00 7 28 Norte 58 Norte 0 -- -- 48
2019-04-04 03:00:00 7.6 32 Norte 55 Noroeste 0 -- -- 46
2019-04-04 02:00:00 8.1 25 Noroeste 48 Norte 0 -- -- 44
2019-04-04 01:00:00 8.6 10 Norte 38 Noroeste 0 -- -- 44
2019-04-04 00:00:00 9.5 21 Noroeste 39 Norte 0 -- -- 42
2019-04-03 23:00:00 10.2 13 Noroeste 33 Norte 0 -- -- 41
2019-04-03 22:00:00 10.8 13 Noroeste 27 Noroeste 0 -- -- 37
2019-04-03 21:00:00 11.9 16 Noroeste 36 Noroeste 0 -- -- 36
2019-04-03 20:00:00 13.1 15 Noroeste 41 Noroeste 0 -- -- 36
2019-04-03 19:00:00 14.2 17 Noroeste 42 Noroeste 0 -- -- 36
2019-04-03 18:00:00 15.2 21 Noroeste 47 Noroeste 0 -- -- 34
2019-04-03 17:00:00 15.7 21 Noroeste 44 Noroeste 0 -- -- 35
2019-04-03 16:00:00 16 18 Noroeste 41 Noroeste 0 -- -- 33
2019-04-03 15:00:00 15.9 20 Noroeste 38 Oeste 0 -- -- 39
2019-04-03 14:00:00 15 16 Noroeste 33 Noroeste 0 -- -- 42
2019-04-03 13:00:00 14 18 Noroeste 28 Noroeste 0 -- -- 50
2019-04-03 12:00:00 13.3 11 Norte 32 Norte 0 -- -- 57
2019-04-03 11:00:00 11.1 22 Norte 35 Norte 0 -- -- 65
2019-04-03 10:00:00 9.1 5 Oeste 19 Noroeste 0 -- -- 77
2019-04-03 09:00:00 5.5 0 Calma 9 Sudoeste 0 -- -- 92
2019-04-03 08:00:00 5.4 5 Sudoeste 12 Sudoeste 0 -- -- 91
2019-04-03 07:00:00 6 5 Oeste 9 Sudoeste 0 -- -- 89
2019-04-03 06:00:00 6.7 5 Sudoeste 14 Sudoeste 0 -- -- 88
2019-04-03 05:00:00 8 8 Oeste 14 Sudoeste 0 -- -- 83
2019-04-03 04:00:00 9.1 12 Sudoeste 20 Sudoeste 0 -- -- 79
2019-04-03 03:00:00 10.4 9 Sudoeste 14 Sudoeste 0 -- -- 71
2019-04-03 02:00:00 11.2 6 Oeste 13 Oeste 0 -- -- 67
2019-04-03 01:00:00 13.3 5 Oeste 27 Norte 0 -- -- 58
2019-04-03 00:00:00 14 10 Oeste 20 Noroeste 0 -- -- 54
2019-04-02 23:00:00 13.6 10 Sudoeste 17 Oeste 0 -- -- 63
2019-04-02 22:00:00 15.5 9 Oeste 17 Oeste 0 -- -- 54
2019-04-02 21:00:00 16.2 5 Oeste 21 Noroeste 0 -- -- 50
2019-04-02 20:00:00 18.7 11 Oeste 23 Oeste 0 -- -- 43
2019-04-02 19:00:00 19.6 8 Oeste 21 Oeste 0 -- -- 42
2019-04-02 18:00:00 19.5 5 Oeste 23 Sudoeste 0 -- -- 41
2019-04-02 17:00:00 21.3 10 Sudoeste 24 Sudoeste 0 -- -- 39
2019-04-02 16:00:00 19.3 9 Sudoeste 26 Sudoeste 0 -- -- 45
2019-04-02 15:00:00 19.7 11 Sudoeste 20 Sudoeste 0 -- -- 47
2019-04-02 14:00:00 19.2 8 Sudoeste 21 Sur 0 -- -- 53
2019-04-02 13:00:00 17.1 13 Sudoeste 21 Sudoeste 0 -- -- 63
2019-04-02 12:00:00 14.6 5 Sur 12 Sudoeste 0 -- -- 72
2019-04-02 11:00:00 12.3 5 Sur 10 Sur 0 -- -- 82
2019-04-02 10:00:00 9.3 5 Sudoeste 9 Sudoeste 0 -- -- 94
2019-04-02 09:00:00 7.4 2 Oeste 5 Sur 0 -- -- 98
2019-04-02 08:00:00 6.8 4 Sudoeste 6 Sur 0 -- -- 98
2019-04-02 07:00:00 7.1 0 Calma 5 Norte 0 -- -- 97
2019-04-02 06:00:00 7.5 4 Este 6 Este 0 -- -- 96
2019-04-02 05:00:00 7.9 3 Norte 5 Norte 0 -- -- 93
2019-04-02 04:00:00 9.3 3 Oeste 9 Sudoeste 0 -- -- 90
2019-04-02 03:00:00 10.4 7 Sudoeste 10 Oeste 0 -- -- 88
2019-04-02 02:00:00 9.8 0 Calma 7 Sudoeste 0 -- -- 92
2019-04-02 01:00:00 11.1 4 Sudoeste 10 Sur 0 -- -- 89
2019-04-02 00:00:00 12.5 4 Noroeste 8 Noroeste 0 -- -- 71
2019-04-01 23:00:00 13 3 Oeste 15 Sudoeste 0.4 -- -- 81
2019-04-01 22:00:00 14.4 5 Noroeste 10 Oeste 0 -- -- 68
2019-04-01 21:00:00 14.4 4 Oeste 6 Noroeste 0 -- -- 67
2019-04-01 20:00:00 15.8 4 Oeste 7 Oeste 0 -- -- 64
2019-04-01 19:00:00 16.7 0 Calma 9 Sudeste 0 -- -- 58
2019-04-01 18:00:00 17.8 5 Sur 14 Sudeste 0 -- -- 51
2019-04-01 17:00:00 16.5 3 Oeste 7 Noroeste 0 -- -- 64
2019-04-01 16:00:00 13.9 5 Oeste 18 Sudoeste 0 -- -- 79
2019-04-01 15:00:00 14.9 9 Sudoeste 18 Sudoeste 0 -- -- 70
2019-04-01 14:00:00 15.8 4 Sur 13 Sudeste 0 -- -- 63
2019-04-01 13:00:00 15 6 Este 18 Este 0 -- -- 68
2019-04-01 12:00:00 13.3 9 Nordeste 23 Nordeste 0 -- -- 75
2019-04-01 11:00:00 11.7 17 Nordeste 26 Este 0 -- -- 81
2019-04-01 10:00:00 10 12 Nordeste 22 Este 0 -- -- 87
2019-04-01 09:00:00 9.4 8 Este 14 Nordeste 0 -- -- 89
2019-04-01 08:00:00 8.8 9 Nordeste 21 Este 0 -- -- 90
2019-04-01 07:00:00 9.2 13 Nordeste 22 Nordeste 0 -- -- 88
2019-04-01 06:00:00 9.3 14 Nordeste 23 Nordeste 0 -- -- 86
2019-04-01 05:00:00 9.9 17 Nordeste 24 Nordeste 0 -- -- 82
2019-04-01 04:00:00 9 7 Nordeste 17 Este 0 -- -- 84
2019-04-01 03:00:00 10.1 15 Nordeste 27 Este 0 -- -- 78
2019-04-01 02:00:00 10.8 16 Nordeste 26 Nordeste 0 -- -- 74
2019-04-01 01:00:00 11.3 17 Este 30 Nordeste 0 -- -- 72
2019-04-01 00:00:00 11.8 22 Nordeste 33 Nordeste 0 -- -- 70
2019-03-31 23:00:00 12.3 18 Nordeste 33 Nordeste 0 -- -- 68
2019-03-31 22:00:00 12.9 19 Nordeste 31 Este 0 -- -- 67
2019-03-31 21:00:00 14.1 16 Este 26 Este 0 -- -- 61
2019-03-31 20:00:00 15.8 18 Nordeste 32 Nordeste 0 -- -- 53
2019-03-31 19:00:00 17.8 18 Este 30 Este 0 -- -- 47
2019-03-31 18:00:00 19.1 16 Este 33 Este 0 -- -- 43
2019-03-31 17:00:00 19.6 15 Este 33 Este 0 -- -- 43
2019-03-31 16:00:00 19 21 Este 41 Este 0 -- -- 42
2019-03-31 15:00:00 18.4 23 Nordeste 39 Este 0 -- -- 43
2019-03-31 14:00:00 17.5 20 Nordeste 40 Este 0 -- -- 48
2019-03-31 13:00:00 16.1 21 Este 38 Este 0 -- -- 51
2019-03-31 12:00:00 14.4 22 Este 39 Este 0 -- -- 56
2019-03-31 11:00:00 12.9 25 Este 39 Nordeste 0 -- -- 60
2019-03-31 10:00:00 10.9 22 Este 40 Nordeste 0 -- -- 66
2019-03-31 09:00:00 10.6 21 Este 40 Nordeste 0 -- -- 68
2019-03-31 08:00:00 11 20 Este 39 Este 0 -- -- 65
2019-03-31 07:00:00 11 19 Nordeste 37 Este 0 -- -- 62
2019-03-31 06:00:00 11.1 14 Nordeste 26 Nordeste 0 -- -- 56
2019-03-31 05:00:00 10.6 6 Este 11 Nordeste 0 -- -- 61
2019-03-31 03:00:00 12.5 5 Nordeste 6 Nordeste 0 -- -- 56
2019-03-31 01:00:00 12.6 0 Calma 7 Noroeste 0 -- -- 49
2019-03-31 00:00:00 13.2 5 Sudeste 30 Sudeste 0 -- -- 47
2019-03-30 23:00:00 13.8 10 Nordeste 14 Este 0 -- -- 45
2019-03-30 22:00:00 14.6 6 Este 17 Este 0 -- -- 42
2019-03-30 21:00:00 15.7 7 Nordeste 14 Norte 0 -- -- 36
2019-03-30 20:00:00 16.6 8 Nordeste 23 Nordeste 0 -- -- 34
2019-03-30 19:00:00 17.6 12 Nordeste 22 Este 0 -- -- 35
2019-03-30 18:00:00 18.4 13 Nordeste 24 Nordeste 0 -- -- 36
2019-03-30 17:00:00 19.2 17 Nordeste 29 Este 0 -- -- 34
2019-03-30 16:00:00 18.2 17 Nordeste 29 Nordeste 0 -- -- 39
2019-03-30 15:00:00 18.6 18 Nordeste 33 Este 0 -- -- 41
2019-03-30 14:00:00 17.8 21 Este 36 Este 0 -- -- 42
2019-03-30 13:00:00 16.4 22 Nordeste 36 Nordeste 0 -- -- 45
2019-03-30 12:00:00 14.6 22 Este 42 Este 0 -- -- 48
2019-03-30 11:00:00 12.5 26 Este 42 Nordeste 0 -- -- 52
2019-03-30 10:00:00 11.2 26 Nordeste 45 Este 0 -- -- 57
2019-03-30 09:00:00 9.4 24 Este 40 Este 0 -- -- 59
2019-03-30 08:00:00 7.7 25 Nordeste 37 Nordeste 0 -- -- 66
2019-03-30 07:00:00 7.5 20 Nordeste 35 Nordeste 0 -- -- 67
2019-03-30 06:00:00 8.2 24 Nordeste 35 Nordeste 0 -- -- 64
2019-03-30 05:00:00 9.2 20 Nordeste 33 Nordeste 0 -- -- 59
2019-03-30 04:00:00 9.9 21 Nordeste 39 Este 0 -- -- 54
2019-03-30 03:00:00 10.6 21 Nordeste 33 Este 0 -- -- 49
2019-03-30 02:00:00 11.4 20 Nordeste 31 Nordeste 0 -- -- 43
2019-03-30 01:00:00 12.3 16 Nordeste 30 Este 0 -- -- 39
2019-03-30 00:00:00 12.5 14 Nordeste 21 Nordeste 0 -- -- 37
2019-03-29 23:00:00 12.4 9 Nordeste 10 Nordeste 0 -- -- 37
2019-03-29 22:00:00 12.9 5 Nordeste 8 Este 0 -- -- 35
2019-03-29 21:00:00 13.2 5 Nordeste 11 Este 0 -- -- 38
2019-03-29 20:00:00 14.9 6 Nordeste 15 Nordeste 0 -- -- 34
2019-03-29 19:00:00 17.2 8 Nordeste 14 Este 0 -- -- 30
2019-03-29 18:00:00 18.4 10 Nordeste 25 Este 0 -- -- 28
2019-03-29 17:00:00 19.1 12 Este 30 Este 0 -- -- 26
2019-03-29 16:00:00 19 15 Este 37 Este 0 -- -- 28
2019-03-29 15:00:00 18.5 18 Este 35 Este 0 -- -- 27
2019-03-29 14:00:00 17.8 21 Este 37 Este 0 -- -- 29
2019-03-29 13:00:00 16.7 24 Nordeste 39 Este 0 -- -- 31
2019-03-29 12:00:00 15.5 25 Este 44 Este 0 -- -- 34
2019-03-29 11:00:00 14.1 23 Este 46 Este 0 -- -- 33
2019-03-29 10:00:00 11.8 23 Nordeste 35 Este 0 -- -- 43
2019-03-29 09:00:00 9.6 27 Nordeste 37 Nordeste 0 -- -- 45
2019-03-29 08:00:00 8.2 20 Nordeste 32 Nordeste 0 -- -- 45
2019-03-29 07:00:00 7 12 Nordeste 25 Nordeste 0 -- -- 51
2019-03-29 06:00:00 9.7 18 Este 31 Este 0 -- -- 42
2019-03-29 05:00:00 9.3 13 Nordeste 19 Nordeste 0 -- -- 43
2019-03-29 04:00:00 9.3 12 Nordeste 19 Nordeste 0 -- -- 43
2019-03-29 03:00:00 11.3 14 Nordeste 24 Nordeste 0 -- -- 35
2019-03-29 02:00:00 11.6 15 Nordeste 20 Nordeste 0 -- -- 35
2019-03-29 01:00:00 13 13 Este 26 Nordeste 0 -- -- 32
2019-03-29 00:00:00 13.4 17 Nordeste 24 Este 0 -- -- 31
2019-03-28 23:00:00 13.2 13 Nordeste 19 Nordeste 0 -- -- 33
2019-03-28 22:00:00 13.6 10 Nordeste 13 Nordeste 0 -- -- 32
2019-03-28 21:00:00 14.5 8 Nordeste 14 Nordeste 0 -- -- 30
2019-03-28 20:00:00 15.8 7 Nordeste 17 Nordeste 0 -- -- 28
2019-03-28 19:00:00 18.1 13 Nordeste 24 Nordeste 0 -- -- 26
2019-03-28 18:00:00 19.4 14 Nordeste 29 Nordeste 0 -- -- 25
2019-03-28 17:00:00 20 17 Nordeste 30 Este 0 -- -- 23
2019-03-28 16:00:00 20.2 15 Nordeste 31 Este 0 -- -- 25
2019-03-28 15:00:00 19.8 20 Nordeste 33 Este 0 -- -- 23
2019-03-28 14:00:00 19.2 17 Nordeste 29 Este 0 -- -- 26
2019-03-28 13:00:00 17.7 19 Nordeste 32 Este 0 -- -- 33
2019-03-28 12:00:00 16.2 17 Nordeste 31 Este 0 -- -- 36
2019-03-28 11:00:00 14 19 Nordeste 35 Nordeste 0 -- -- 40
2019-03-28 10:00:00 11.2 26 Nordeste 40 Este 0 -- -- 46
2019-03-28 09:00:00 8.9 26 Nordeste 40 Nordeste 0 -- -- 48
2019-03-28 08:00:00 6.9 12 Este 40 Nordeste 0 -- -- 56
2019-03-28 07:00:00 8.9 17 Nordeste 28 Nordeste 0 -- -- 45
2019-03-28 06:00:00 9.2 13 Este 22 Este 0 -- -- 46
2019-03-28 05:00:00 7.2 10 Nordeste 21 Nordeste 0 -- -- 61
2019-03-28 04:00:00 9.8 9 Este 24 Este 0 -- -- 50
2019-03-28 03:00:00 9.6 9 Nordeste 12 Nordeste 0 -- -- 52
2019-03-28 02:00:00 9.1 5 Nordeste 8 Sudeste 0 -- -- 53
2019-03-28 01:00:00 9.2 5 Norte 12 Nordeste 0 -- -- 56
2019-03-28 00:00:00 12.5 9 Nordeste 13 Nordeste 0 -- -- 42
2019-03-27 23:00:00 12.5 8 Nordeste 13 Nordeste 0 -- -- 42
2019-03-27 22:00:00 13.5 11 Nordeste 16 Nordeste 0 -- -- 39
2019-03-27 21:00:00 13.5 11 Nordeste 14 Nordeste 0 -- -- 41
2019-03-27 20:00:00 14.1 9 Nordeste 13 Nordeste 0 -- -- 40
2019-03-27 19:00:00 17 10 Nordeste 22 Este 0 -- -- 32
2019-03-27 18:00:00 18.3 13 Este 26 Este 0 -- -- 28
2019-03-27 17:00:00 18.8 15 Este 28 Nordeste 0 -- -- 33
2019-03-27 16:00:00 18.6 12 Nordeste 31 Nordeste 0 -- -- 32
2019-03-27 15:00:00 18 19 Nordeste 36 Nordeste 0 -- -- 33
2019-03-27 14:00:00 17.3 21 Este 38 Este 0 -- -- 35
2019-03-27 13:00:00 16 24 Este 44 Nordeste 0 -- -- 39
2019-03-27 12:00:00 14.7 22 Este 43 Nordeste 0 -- -- 47
2019-03-27 11:00:00 12.9 24 Este 44 Este 0 -- -- 49
2019-03-27 10:00:00 10.9 31 Nordeste 48 Nordeste 0 -- -- 57
2019-03-27 09:00:00 9 28 Nordeste 52 Nordeste 0 -- -- 61
2019-03-27 08:00:00 8.2 27 Este 55 Este 0 -- -- 66
2019-03-27 07:00:00 8.3 33 Nordeste 53 Nordeste 0 -- -- 66
2019-03-27 06:00:00 9.6 36 Este 54 Este 0 -- -- 58
2019-03-27 05:00:00 10.9 35 Este 55 Nordeste 0 -- -- 52
2019-03-27 04:00:00 11.7 28 Este 42 Este 0 -- -- 46
2019-03-27 03:00:00 12.4 21 Nordeste 40 Nordeste 0 -- -- 41
2019-03-27 02:00:00 13.3 22 Este 40 Este 0 -- -- 35
2019-03-27 01:00:00 14.8 29 Este 49 Este 0 -- -- 32
2019-03-27 00:00:00 14.7 20 Nordeste 36 Este 0 -- -- 36